sensor_id;sensor_type;location;lat;lon;timestamp;P1;durP1;ratioP1;P2;durP2;ratioP2
60873;SDS011;46715;40.642;-7.920;2023-09-19T00:00:30;18.30;;;5.50;;
60873;SDS011;46715;40.642;-7.920;2023-09-19T00:04:33;17.40;;;5.35;;
60873;SDS011;46715;40.642;-7.920;2023-09-19T00:06:34;14.63;;;5.43;;
60873;SDS011;46715;40.642;-7.920;2023-09-19T00:08:35;20.73;;;6.18;;
60873;SDS011;46715;40.642;-7.920;2023-09-19T00:10:36;20.93;;;6.50;;
60873;SDS011;46715;40.642;-7.920;2023-09-19T00:12:42;19.30;;;5.78;;
60873;SDS011;46715;40.642;-7.920;2023-09-19T00:14:43;21.73;;;5.88;;
60873;SDS011;46715;40.642;-7.920;2023-09-19T00:16:45;17.30;;;6.15;;
60873;SDS011;46715;40.642;-7.920;2023-09-19T00:18:46;16.50;;;4.80;;
60873;SDS011;46715;40.642;-7.920;2023-09-19T00:20:49;11.07;;;4.38;;
60873;SDS011;46715;40.642;-7.920;2023-09-19T00:22:51;19.25;;;5.60;;
60873;SDS011;46715;40.642;-7.920;2023-09-19T00:24:53;16.65;;;5.32;;
60873;SDS011;46715;40.642;-7.920;2023-09-19T00:26:54;16.77;;;5.20;;
60873;SDS011;46715;40.642;-7.920;2023-09-19T00:28:55;16.75;;;5.55;;
60873;SDS011;46715;40.642;-7.920;2023-09-19T00:30:59;18.17;;;5.47;;
60873;SDS011;46715;40.642;-7.920;2023-09-19T00:33:01;14.50;;;4.60;;
60873;SDS011;46715;40.642;-7.920;2023-09-19T00:35:06;17.13;;;5.03;;
60873;SDS011;46715;40.642;-7.920;2023-09-19T00:37:09;13.32;;;5.50;;
60873;SDS011;46715;40.642;-7.920;2023-09-19T00:39:12;13.02;;;4.65;;
60873;SDS011;46715;40.642;-7.920;2023-09-19T00:41:12;17.30;;;5.27;;
60873;SDS011;46715;40.642;-7.920;2023-09-19T00:43:13;14.07;;;5.30;;
60873;SDS011;46715;40.642;-7.920;2023-09-19T00:45:14;17.70;;;5.83;;
60873;SDS011;46715;40.642;-7.920;2023-09-19T00:47:19;19.15;;;5.68;;
60873;SDS011;46715;40.642;-7.920;2023-09-19T00:49:20;15.15;;;5.65;;
60873;SDS011;46715;40.642;-7.920;2023-09-19T00:51:22;11.85;;;5.32;;
60873;SDS011;46715;40.642;-7.920;2023-09-19T00:53:25;12.75;;;5.35;;
60873;SDS011;46715;40.642;-7.920;2023-09-19T00:55:28;18.80;;;5.45;;
60873;SDS011;46715;40.642;-7.920;2023-09-19T00:57:30;21.63;;;5.95;;
60873;SDS011;46715;40.642;-7.920;2023-09-19T00:59:32;12.00;;;4.55;;
60873;SDS011;46715;40.642;-7.920;2023-09-19T01:01:35;14.88;;;5.25;;
60873;SDS011;46715;40.642;-7.920;2023-09-19T01:03:40;11.93;;;5.22;;
60873;SDS011;46715;40.642;-7.920;2023-09-19T01:05:42;18.75;;;5.28;;
60873;SDS011;46715;40.642;-7.920;2023-09-19T01:07:43;11.17;;;5.53;;
60873;SDS011;46715;40.642;-7.920;2023-09-19T01:09:45;18.13;;;5.55;;
60873;SDS011;46715;40.642;-7.920;2023-09-19T01:11:47;13.73;;;5.20;;
60873;SDS011;46715;40.642;-7.920;2023-09-19T01:14:02;13.38;;;5.07;;
60873;SDS011;46715;40.642;-7.920;2023-09-19T01:16:53;17.23;;;5.60;;
60873;SDS011;46715;40.642;-7.920;2023-09-19T01:21:24;12.38;;;5.15;;
60873;SDS011;46715;40.642;-7.920;2023-09-19T01:24:22;19.55;;;5.93;;
60873;SDS011;46715;40.642;-7.920;2023-09-19T01:26:11;14.52;;;5.50;;
60873;SDS011;46715;40.642;-7.920;2023-09-19T01:28:51;11.05;;;5.32;;
60873;SDS011;46715;40.642;-7.920;2023-09-19T01:30:57;16.30;;;5.68;;
60873;SDS011;46715;40.642;-7.920;2023-09-19T01:33:01;15.98;;;6.38;;
60873;SDS011;46715;40.642;-7.920;2023-09-19T01:35:05;14.05;;;6.15;;
60873;SDS011;46715;40.642;-7.920;2023-09-19T01:37:06;12.63;;;6.03;;
60873;SDS011;46715;40.642;-7.920;2023-09-19T01:39:07;23.60;;;6.37;;
60873;SDS011;46715;40.642;-7.920;2023-09-19T01:41:13;13.07;;;6.22;;
60873;SDS011;46715;40.642;-7.920;2023-09-19T01:43:33;15.57;;;6.65;;
60873;SDS011;46715;40.642;-7.920;2023-09-19T01:45:50;13.18;;;5.78;;
60873;SDS011;46715;40.642;-7.920;2023-09-19T01:50:59;23.00;;;6.40;;
60873;SDS011;46715;40.642;-7.920;2023-09-19T01:53:04;16.80;;;6.43;;
60873;SDS011;46715;40.642;-7.920;2023-09-19T01:55:10;19.23;;;6.45;;
60873;SDS011;46715;40.642;-7.920;2023-09-19T01:57:26;16.83;;;6.63;;
60873;SDS011;46715;40.642;-7.920;2023-09-19T01:59:37;15.32;;;5.63;;
60873;SDS011;46715;40.642;-7.920;2023-09-19T02:01:45;14.43;;;5.57;;
60873;SDS011;46715;40.642;-7.920;2023-09-19T02:03:47;19.60;;;6.13;;
60873;SDS011;46715;40.642;-7.920;2023-09-19T02:05:50;13.75;;;5.72;;
60873;SDS011;46715;40.642;-7.920;2023-09-19T02:07:54;15.63;;;6.03;;
60873;SDS011;46715;40.642;-7.920;2023-09-19T02:09:59;14.18;;;5.38;;
60873;SDS011;46715;40.642;-7.920;2023-09-19T02:12:05;10.45;;;4.65;;
60873;SDS011;46715;40.642;-7.920;2023-09-19T02:14:06;15.03;;;5.30;;
60873;SDS011;46715;40.642;-7.920;2023-09-19T02:16:09;16.73;;;5.53;;
60873;SDS011;46715;40.642;-7.920;2023-09-19T02:18:11;12.60;;;5.18;;
60873;SDS011;46715;40.642;-7.920;2023-09-19T02:20:12;16.45;;;5.80;;
60873;SDS011;46715;40.642;-7.920;2023-09-19T02:22:15;15.98;;;5.88;;
60873;SDS011;46715;40.642;-7.920;2023-09-19T02:24:16;17.50;;;5.88;;
60873;SDS011;46715;40.642;-7.920;2023-09-19T02:26:18;17.60;;;5.47;;
60873;SDS011;46715;40.642;-7.920;2023-09-19T02:28:19;18.73;;;5.90;;
60873;SDS011;46715;40.642;-7.920;2023-09-19T02:30:19;18.43;;;5.83;;
60873;SDS011;46715;40.642;-7.920;2023-09-19T02:32:26;18.30;;;5.70;;
60873;SDS011;46715;40.642;-7.920;2023-09-19T02:34:26;10.37;;;5.03;;
60873;SDS011;46715;40.642;-7.920;2023-09-19T02:36:28;19.02;;;5.70;;
60873;SDS011;46715;40.642;-7.920;2023-09-19T02:38:30;13.82;;;5.25;;
60873;SDS011;46715;40.642;-7.920;2023-09-19T02:40:31;17.70;;;5.80;;
60873;SDS011;46715;40.642;-7.920;2023-09-19T02:42:31;11.80;;;5.47;;
60873;SDS011;46715;40.642;-7.920;2023-09-19T02:44:32;21.63;;;6.27;;
60873;SDS011;46715;40.642;-7.920;2023-09-19T02:46:34;17.75;;;5.25;;
60873;SDS011;46715;40.642;-7.920;2023-09-19T02:48:38;16.27;;;5.00;;
60873;SDS011;46715;40.642;-7.920;2023-09-19T02:50:38;19.50;;;5.60;;
60873;SDS011;46715;40.642;-7.920;2023-09-19T02:52:42;16.08;;;5.30;;
60873;SDS011;46715;40.642;-7.920;2023-09-19T02:54:44;20.35;;;5.70;;
60873;SDS011;46715;40.642;-7.920;2023-09-19T02:56:45;12.07;;;5.20;;
60873;SDS011;46715;40.642;-7.920;2023-09-19T02:58:45;11.00;;;5.10;;
60873;SDS011;46715;40.642;-7.920;2023-09-19T03:00:46;13.40;;;5.07;;
60873;SDS011;46715;40.642;-7.920;2023-09-19T03:02:52;13.60;;;5.57;;
60873;SDS011;46715;40.642;-7.920;2023-09-19T03:04:54;11.85;;;4.28;;
60873;SDS011;46715;40.642;-7.920;2023-09-19T03:06:57;11.48;;;5.00;;
60873;SDS011;46715;40.642;-7.920;2023-09-19T03:09:01;22.20;;;5.53;;
60873;SDS011;46715;40.642;-7.920;2023-09-19T03:11:03;12.88;;;4.82;;
60873;SDS011;46715;40.642;-7.920;2023-09-19T03:13:06;14.25;;;4.80;;
60873;SDS011;46715;40.642;-7.920;2023-09-19T03:15:09;12.23;;;4.38;;
60873;SDS011;46715;40.642;-7.920;2023-09-19T03:17:10;13.90;;;5.30;;
60873;SDS011;46715;40.642;-7.920;2023-09-19T03:19:11;13.20;;;5.57;;
60873;SDS011;46715;40.642;-7.920;2023-09-19T03:21:17;16.13;;;5.20;;
60873;SDS011;46715;40.642;-7.920;2023-09-19T03:23:19;13.77;;;4.63;;
60873;SDS011;46715;40.642;-7.920;2023-09-19T03:25:20;9.87;;;4.73;;
60873;SDS011;46715;40.642;-7.920;2023-09-19T03:27:24;11.27;;;4.65;;
60873;SDS011;46715;40.642;-7.920;2023-09-19T03:29:26;12.90;;;4.72;;
60873;SDS011;46715;40.642;-7.920;2023-09-19T03:31:27;12.68;;;4.80;;
60873;SDS011;46715;40.642;-7.920;2023-09-19T03:33:28;12.30;;;4.30;;
60873;SDS011;46715;40.642;-7.920;2023-09-19T03:35:33;8.63;;;4.90;;
60873;SDS011;46715;40.642;-7.920;2023-09-19T03:37:36;12.57;;;5.22;;
60873;SDS011;46715;40.642;-7.920;2023-09-19T03:39:36;10.87;;;4.73;;
60873;SDS011;46715;40.642;-7.920;2023-09-19T03:41:37;12.70;;;5.33;;
60873;SDS011;46715;40.642;-7.920;2023-09-19T03:43:38;12.50;;;4.72;;
60873;SDS011;46715;40.642;-7.920;2023-09-19T03:45:40;12.25;;;4.43;;
60873;SDS011;46715;40.642;-7.920;2023-09-19T03:49:44;11.57;;;4.65;;
60873;SDS011;46715;40.642;-7.920;2023-09-19T03:51:45;11.83;;;4.87;;
60873;SDS011;46715;40.642;-7.920;2023-09-19T03:53:46;11.25;;;4.72;;
60873;SDS011;46715;40.642;-7.920;2023-09-19T03:55:49;18.02;;;5.43;;
60873;SDS011;46715;40.642;-7.920;2023-09-19T03:59:53;10.80;;;4.60;;
60873;SDS011;46715;40.642;-7.920;2023-09-19T04:01:54;15.70;;;5.60;;
60873;SDS011;46715;40.642;-7.920;2023-09-19T04:03:57;11.70;;;4.82;;
60873;SDS011;46715;40.642;-7.920;2023-09-19T04:05:59;13.63;;;4.68;;
60873;SDS011;46715;40.642;-7.920;2023-09-19T04:07:59;13.03;;;5.20;;
60873;SDS011;46715;40.642;-7.920;2023-09-19T04:10:00;17.40;;;5.17;;
60873;SDS011;46715;40.642;-7.920;2023-09-19T04:12:01;16.95;;;5.72;;
60873;SDS011;46715;40.642;-7.920;2023-09-19T04:14:03;17.90;;;5.13;;
60873;SDS011;46715;40.642;-7.920;2023-09-19T04:16:04;13.50;;;5.18;;
60873;SDS011;46715;40.642;-7.920;2023-09-19T04:18:07;13.35;;;5.75;;
60873;SDS011;46715;40.642;-7.920;2023-09-19T04:20:07;12.23;;;5.30;;
60873;SDS011;46715;40.642;-7.920;2023-09-19T04:24:11;12.18;;;4.90;;
60873;SDS011;46715;40.642;-7.920;2023-09-19T04:26:13;9.50;;;5.13;;
60873;SDS011;46715;40.642;-7.920;2023-09-19T04:28:16;15.32;;;5.35;;
60873;SDS011;46715;40.642;-7.920;2023-09-19T04:30:16;14.67;;;5.43;;
60873;SDS011;46715;40.642;-7.920;2023-09-19T04:32:17;13.70;;;4.83;;
60873;SDS011;46715;40.642;-7.920;2023-09-19T04:34:18;16.43;;;5.70;;
60873;SDS011;46715;40.642;-7.920;2023-09-19T04:36:18;18.53;;;6.17;;
60873;SDS011;46715;40.642;-7.920;2023-09-19T04:38:19;16.67;;;5.53;;
60873;SDS011;46715;40.642;-7.920;2023-09-19T04:40:20;15.73;;;5.97;;
60873;SDS011;46715;40.642;-7.920;2023-09-19T04:42:22;15.35;;;5.82;;
60873;SDS011;46715;40.642;-7.920;2023-09-19T04:44:25;14.10;;;5.82;;
60873;SDS011;46715;40.642;-7.920;2023-09-19T04:46:25;13.00;;;5.83;;
60873;SDS011;46715;40.642;-7.920;2023-09-19T04:48:26;10.60;;;5.53;;
60873;SDS011;46715;40.642;-7.920;2023-09-19T04:50:29;12.32;;;5.80;;
60873;SDS011;46715;40.642;-7.920;2023-09-19T04:52:30;14.17;;;5.10;;
60873;SDS011;46715;40.642;-7.920;2023-09-19T04:54:31;13.88;;;6.20;;
60873;SDS011;46715;40.642;-7.920;2023-09-19T04:56:32;15.03;;;5.10;;
60873;SDS011;46715;40.642;-7.920;2023-09-19T04:58:33;9.50;;;5.20;;
60873;SDS011;46715;40.642;-7.920;2023-09-19T05:00:34;14.73;;;5.57;;
60873;SDS011;46715;40.642;-7.920;2023-09-19T05:02:35;13.55;;;5.30;;
60873;SDS011;46715;40.642;-7.920;2023-09-19T05:04:36;17.97;;;5.67;;
60873;SDS011;46715;40.642;-7.920;2023-09-19T05:06:37;14.88;;;5.18;;
60873;SDS011;46715;40.642;-7.920;2023-09-19T05:08:38;12.67;;;4.83;;
60873;SDS011;46715;40.642;-7.920;2023-09-19T05:10:38;15.77;;;4.47;;
60873;SDS011;46715;40.642;-7.920;2023-09-19T05:12:40;9.97;;;4.73;;
60873;SDS011;46715;40.642;-7.920;2023-09-19T05:14:41;12.50;;;4.28;;
60873;SDS011;46715;40.642;-7.920;2023-09-19T05:16:42;15.10;;;4.47;;
60873;SDS011;46715;40.642;-7.920;2023-09-19T05:18:43;15.23;;;5.27;;
60873;SDS011;46715;40.642;-7.920;2023-09-19T05:20:43;10.03;;;5.20;;
60873;SDS011;46715;40.642;-7.920;2023-09-19T05:22:44;15.67;;;5.00;;
60873;SDS011;46715;40.642;-7.920;2023-09-19T05:24:46;16.55;;;5.20;;
60873;SDS011;46715;40.642;-7.920;2023-09-19T05:26:49;18.25;;;5.90;;
60873;SDS011;46715;40.642;-7.920;2023-09-19T05:28:50;14.63;;;4.93;;
60873;SDS011;46715;40.642;-7.920;2023-09-19T05:30:51;16.27;;;5.83;;
60873;SDS011;46715;40.642;-7.920;2023-09-19T05:32:53;12.15;;;5.65;;
60873;SDS011;46715;40.642;-7.920;2023-09-19T05:36:56;13.57;;;5.47;;
60873;SDS011;46715;40.642;-7.920;2023-09-19T05:38:57;18.77;;;6.00;;
60873;SDS011;46715;40.642;-7.920;2023-09-19T05:40:58;14.50;;;5.95;;
60873;SDS011;46715;40.642;-7.920;2023-09-19T05:42:59;13.67;;;6.20;;
60873;SDS011;46715;40.642;-7.920;2023-09-19T05:44:59;11.07;;;6.10;;
60873;SDS011;46715;40.642;-7.920;2023-09-19T05:47:00;12.73;;;6.30;;
60873;SDS011;46715;40.642;-7.920;2023-09-19T05:49:02;11.60;;;6.50;;
60873;SDS011;46715;40.642;-7.920;2023-09-19T05:51:03;15.68;;;5.85;;
60873;SDS011;46715;40.642;-7.920;2023-09-19T05:53:04;14.32;;;6.00;;
60873;SDS011;46715;40.642;-7.920;2023-09-19T05:55:05;13.18;;;5.32;;
60873;SDS011;46715;40.642;-7.920;2023-09-19T05:57:07;12.80;;;5.72;;
60873;SDS011;46715;40.642;-7.920;2023-09-19T05:59:08;15.63;;;6.80;;
60873;SDS011;46715;40.642;-7.920;2023-09-19T06:01:09;16.57;;;6.07;;
60873;SDS011;46715;40.642;-7.920;2023-09-19T06:03:09;15.10;;;6.37;;
60873;SDS011;46715;40.642;-7.920;2023-09-19T06:05:12;19.65;;;6.15;;
60873;SDS011;46715;40.642;-7.920;2023-09-19T06:07:12;11.87;;;5.80;;
60873;SDS011;46715;40.642;-7.920;2023-09-19T06:09:13;20.67;;;5.90;;
60873;SDS011;46715;40.642;-7.920;2023-09-19T06:11:14;15.50;;;6.23;;
60873;SDS011;46715;40.642;-7.920;2023-09-19T06:13:14;21.77;;;6.93;;
60873;SDS011;46715;40.642;-7.920;2023-09-19T06:15:15;14.53;;;6.57;;
60873;SDS011;46715;40.642;-7.920;2023-09-19T06:17:18;12.38;;;6.60;;
60873;SDS011;46715;40.642;-7.920;2023-09-19T06:19:20;14.00;;;6.88;;
60873;SDS011;46715;40.642;-7.920;2023-09-19T06:21:22;20.05;;;6.53;;
60873;SDS011;46715;40.642;-7.920;2023-09-19T06:23:23;13.60;;;6.95;;
60873;SDS011;46715;40.642;-7.920;2023-09-19T06:25:26;18.85;;;7.32;;
60873;SDS011;46715;40.642;-7.920;2023-09-19T06:27:27;14.98;;;7.20;;
60873;SDS011;46715;40.642;-7.920;2023-09-19T06:29:29;13.45;;;6.82;;
60873;SDS011;46715;40.642;-7.920;2023-09-19T06:31:30;12.27;;;6.70;;
60873;SDS011;46715;40.642;-7.920;2023-09-19T06:33:31;12.23;;;5.18;;
60873;SDS011;46715;40.642;-7.920;2023-09-19T06:35:32;15.90;;;5.93;;
60873;SDS011;46715;40.642;-7.920;2023-09-19T06:37:34;18.02;;;6.30;;
60873;SDS011;46715;40.642;-7.920;2023-09-19T06:39:34;18.87;;;6.23;;
60873;SDS011;46715;40.642;-7.920;2023-09-19T06:41:35;14.93;;;6.03;;
60873;SDS011;46715;40.642;-7.920;2023-09-19T06:43:40;13.90;;;6.03;;
60873;SDS011;46715;40.642;-7.920;2023-09-19T06:45:41;15.50;;;6.53;;
60873;SDS011;46715;40.642;-7.920;2023-09-19T06:47:42;21.65;;;6.53;;
60873;SDS011;46715;40.642;-7.920;2023-09-19T06:49:44;16.75;;;5.70;;
60873;SDS011;46715;40.642;-7.920;2023-09-19T06:51:45;13.17;;;6.07;;
60873;SDS011;46715;40.642;-7.920;2023-09-19T06:53:45;13.43;;;5.60;;
60873;SDS011;46715;40.642;-7.920;2023-09-19T06:55:46;19.57;;;6.40;;
60873;SDS011;46715;40.642;-7.920;2023-09-19T06:57:50;12.13;;;6.63;;
60873;SDS011;46715;40.642;-7.920;2023-09-19T06:59:52;23.23;;;6.78;;
60873;SDS011;46715;40.642;-7.920;2023-09-19T07:01:52;12.00;;;5.90;;
60873;SDS011;46715;40.642;-7.920;2023-09-19T07:03:53;24.20;;;6.87;;
60873;SDS011;46715;40.642;-7.920;2023-09-19T07:05:54;12.52;;;5.35;;
60873;SDS011;46715;40.642;-7.920;2023-09-19T07:07:56;11.98;;;6.32;;
60873;SDS011;46715;40.642;-7.920;2023-09-19T07:10:02;15.88;;;7.32;;
60873;SDS011;46715;40.642;-7.920;2023-09-19T07:12:08;17.23;;;6.32;;
60873;SDS011;46715;40.642;-7.920;2023-09-19T07:14:09;15.30;;;6.87;;
60873;SDS011;46715;40.642;-7.920;2023-09-19T07:16:13;16.30;;;6.50;;
60873;SDS011;46715;40.642;-7.920;2023-09-19T07:18:27;13.55;;;6.75;;
60873;SDS011;46715;40.642;-7.920;2023-09-19T07:20:28;16.40;;;6.68;;
60873;SDS011;46715;40.642;-7.920;2023-09-19T07:22:31;16.20;;;5.82;;
60873;SDS011;46715;40.642;-7.920;2023-09-19T07:24:33;13.68;;;5.93;;
60873;SDS011;46715;40.642;-7.920;2023-09-19T07:26:33;10.93;;;5.07;;
60873;SDS011;46715;40.642;-7.920;2023-09-19T07:28:35;14.43;;;5.30;;
60873;SDS011;46715;40.642;-7.920;2023-09-19T07:30:36;14.25;;;5.70;;
60873;SDS011;46715;40.642;-7.920;2023-09-19T07:32:38;18.33;;;5.28;;
60873;SDS011;46715;40.642;-7.920;2023-09-19T07:34:38;10.98;;;4.90;;
60873;SDS011;46715;40.642;-7.920;2023-09-19T07:36:41;10.45;;;4.43;;
60873;SDS011;46715;40.642;-7.920;2023-09-19T07:40:43;11.60;;;4.35;;
60873;SDS011;46715;40.642;-7.920;2023-09-19T07:42:44;10.40;;;3.60;;
60873;SDS011;46715;40.642;-7.920;2023-09-19T07:44:47;8.55;;;3.25;;
60873;SDS011;46715;40.642;-7.920;2023-09-19T07:46:50;6.90;;;2.78;;
60873;SDS011;46715;40.642;-7.920;2023-09-19T07:48:54;7.40;;;2.90;;
60873;SDS011;46715;40.642;-7.920;2023-09-19T07:50:54;13.37;;;3.23;;
60873;SDS011;46715;40.642;-7.920;2023-09-19T07:52:55;13.38;;;3.10;;
60873;SDS011;46715;40.642;-7.920;2023-09-19T07:54:56;7.00;;;2.50;;
60873;SDS011;46715;40.642;-7.920;2023-09-19T07:56:58;12.40;;;2.72;;
60873;SDS011;46715;40.642;-7.920;2023-09-19T07:58:59;9.48;;;3.30;;
60873;SDS011;46715;40.642;-7.920;2023-09-19T08:01:06;6.97;;;2.38;;
60873;SDS011;46715;40.642;-7.920;2023-09-19T08:03:08;5.63;;;2.42;;
60873;SDS011;46715;40.642;-7.920;2023-09-19T08:05:10;16.13;;;2.88;;
60873;SDS011;46715;40.642;-7.920;2023-09-19T08:07:12;13.93;;;6.32;;
60873;SDS011;46715;40.642;-7.920;2023-09-19T08:09:16;7.43;;;2.40;;
60873;SDS011;46715;40.642;-7.920;2023-09-19T08:11:20;11.50;;;2.80;;
60873;SDS011;46715;40.642;-7.920;2023-09-19T08:13:25;7.82;;;2.92;;
60873;SDS011;46715;40.642;-7.920;2023-09-19T08:15:29;11.88;;;3.40;;
60873;SDS011;46715;40.642;-7.920;2023-09-19T08:17:33;12.07;;;3.20;;
60873;SDS011;46715;40.642;-7.920;2023-09-19T08:19:37;8.50;;;2.78;;
60873;SDS011;46715;40.642;-7.920;2023-09-19T08:21:41;8.73;;;2.92;;
60873;SDS011;46715;40.642;-7.920;2023-09-19T08:23:48;8.88;;;3.20;;
60873;SDS011;46715;40.642;-7.920;2023-09-19T08:25:49;9.02;;;2.83;;
60873;SDS011;46715;40.642;-7.920;2023-09-19T08:29:51;6.80;;;2.53;;
60873;SDS011;46715;40.642;-7.920;2023-09-19T08:35:56;7.95;;;2.33;;
60873;SDS011;46715;40.642;-7.920;2023-09-19T08:37:56;8.10;;;2.22;;
60873;SDS011;46715;40.642;-7.920;2023-09-19T08:39:57;4.18;;;2.03;;
60873;SDS011;46715;40.642;-7.920;2023-09-19T08:43:59;6.03;;;2.70;;
60873;SDS011;46715;40.642;-7.920;2023-09-19T08:46:10;7.97;;;1.70;;
60873;SDS011;46715;40.642;-7.920;2023-09-19T08:48:25;7.93;;;2.10;;
60873;SDS011;46715;40.642;-7.920;2023-09-19T08:50:33;8.13;;;1.80;;
60873;SDS011;46715;40.642;-7.920;2023-09-19T08:52:43;7.90;;;1.88;;
60873;SDS011;46715;40.642;-7.920;2023-09-19T08:54:57;6.75;;;2.00;;
60873;SDS011;46715;40.642;-7.920;2023-09-19T08:57:05;3.92;;;2.50;;
60873;SDS011;46715;40.642;-7.920;2023-09-19T08:59:11;4.68;;;1.77;;
60873;SDS011;46715;40.642;-7.920;2023-09-19T09:01:14;6.63;;;1.50;;
60873;SDS011;46715;40.642;-7.920;2023-09-19T09:03:16;4.20;;;1.60;;
60873;SDS011;46715;40.642;-7.920;2023-09-19T09:05:19;7.20;;;1.70;;
60873;SDS011;46715;40.642;-7.920;2023-09-19T09:07:23;7.68;;;1.70;;
60873;SDS011;46715;40.642;-7.920;2023-09-19T09:09:30;7.40;;;2.15;;
60873;SDS011;46715;40.642;-7.920;2023-09-19T09:11:33;6.82;;;1.67;;
60873;SDS011;46715;40.642;-7.920;2023-09-19T09:13:34;3.17;;;1.27;;
60873;SDS011;46715;40.642;-7.920;2023-09-19T09:15:39;3.33;;;1.38;;
60873;SDS011;46715;40.642;-7.920;2023-09-19T09:17:41;3.05;;;1.50;;
60873;SDS011;46715;40.642;-7.920;2023-09-19T09:19:43;4.88;;;1.70;;
60873;SDS011;46715;40.642;-7.920;2023-09-19T09:23:44;4.50;;;1.77;;
60873;SDS011;46715;40.642;-7.920;2023-09-19T09:25:55;3.85;;;1.35;;
60873;SDS011;46715;40.642;-7.920;2023-09-19T09:28:00;4.47;;;1.50;;
60873;SDS011;46715;40.642;-7.920;2023-09-19T09:30:01;11.07;;;1.90;;
60873;SDS011;46715;40.642;-7.920;2023-09-19T09:32:15;14.45;;;3.55;;
60873;SDS011;46715;40.642;-7.920;2023-09-19T09:34:18;6.63;;;1.80;;
60873;SDS011;46715;40.642;-7.920;2023-09-19T09:36:34;6.05;;;2.38;;
60873;SDS011;46715;40.642;-7.920;2023-09-19T09:38:45;5.47;;;1.90;;
60873;SDS011;46715;40.642;-7.920;2023-09-19T09:40:49;5.30;;;1.50;;
60873;SDS011;46715;40.642;-7.920;2023-09-19T09:42:59;5.25;;;2.05;;
60873;SDS011;46715;40.642;-7.920;2023-09-19T09:47:47;5.22;;;1.33;;
60873;SDS011;46715;40.642;-7.920;2023-09-19T09:49:57;6.05;;;1.70;;
60873;SDS011;46715;40.642;-7.920;2023-09-19T09:52:07;5.53;;;1.45;;
60873;SDS011;46715;40.642;-7.920;2023-09-19T09:54:17;4.75;;;1.60;;
60873;SDS011;46715;40.642;-7.920;2023-09-19T09:56:22;3.97;;;1.52;;
60873;SDS011;46715;40.642;-7.920;2023-09-19T10:00:29;4.38;;;1.65;;
60873;SDS011;46715;40.642;-7.920;2023-09-19T10:02:42;3.97;;;1.63;;
60873;SDS011;46715;40.642;-7.920;2023-09-19T10:04:46;4.53;;;1.90;;
60873;SDS011;46715;40.642;-7.920;2023-09-19T10:07:10;3.97;;;1.48;;
60873;SDS011;46715;40.642;-7.920;2023-09-19T10:09:45;4.35;;;1.55;;
60873;SDS011;46715;40.642;-7.920;2023-09-19T10:11:48;9.45;;;1.70;;
60873;SDS011;46715;40.642;-7.920;2023-09-19T10:13:58;5.88;;;1.45;;
60873;SDS011;46715;40.642;-7.920;2023-09-19T10:16:05;4.20;;;1.67;;
60873;SDS011;46715;40.642;-7.920;2023-09-19T10:18:10;5.53;;;1.80;;
60873;SDS011;46715;40.642;-7.920;2023-09-19T10:20:17;4.53;;;1.88;;
60873;SDS011;46715;40.642;-7.920;2023-09-19T10:22:35;7.38;;;1.70;;
60873;SDS011;46715;40.642;-7.920;2023-09-19T10:24:37;7.05;;;1.40;;
60873;SDS011;46715;40.642;-7.920;2023-09-19T10:26:40;2.80;;;1.40;;
60873;SDS011;46715;40.642;-7.920;2023-09-19T10:28:43;8.13;;;1.50;;
60873;SDS011;46715;40.642;-7.920;2023-09-19T10:30:49;6.30;;;1.50;;
60873;SDS011;46715;40.642;-7.920;2023-09-19T10:32:56;4.93;;;1.80;;
60873;SDS011;46715;40.642;-7.920;2023-09-19T10:35:02;5.40;;;1.70;;
60873;SDS011;46715;40.642;-7.920;2023-09-19T10:37:07;7.00;;;1.95;;
60873;SDS011;46715;40.642;-7.920;2023-09-19T10:39:13;10.82;;;6.05;;
60873;SDS011;46715;40.642;-7.920;2023-09-19T10:41:19;7.40;;;2.17;;
60873;SDS011;46715;40.642;-7.920;2023-09-19T10:43:25;6.00;;;2.10;;
60873;SDS011;46715;40.642;-7.920;2023-09-19T10:45:30;6.43;;;1.80;;
60873;SDS011;46715;40.642;-7.920;2023-09-19T10:47:32;5.13;;;1.40;;
60873;SDS011;46715;40.642;-7.920;2023-09-19T10:49:32;5.65;;;3.03;;
60873;SDS011;46715;40.642;-7.920;2023-09-19T10:51:38;3.95;;;1.30;;
60873;SDS011;46715;40.642;-7.920;2023-09-19T10:55:53;3.75;;;2.10;;
60873;SDS011;46715;40.642;-7.920;2023-09-19T10:57:58;5.35;;;1.80;;
60873;SDS011;46715;40.642;-7.920;2023-09-19T11:00:03;6.93;;;1.70;;
60873;SDS011;46715;40.642;-7.920;2023-09-19T11:02:21;5.18;;;1.40;;
60873;SDS011;46715;40.642;-7.920;2023-09-19T11:04:27;6.72;;;1.80;;
60873;SDS011;46715;40.642;-7.920;2023-09-19T11:06:39;7.95;;;2.08;;
60873;SDS011;46715;40.642;-7.920;2023-09-19T11:08:52;9.57;;;3.92;;
60873;SDS011;46715;40.642;-7.920;2023-09-19T11:10:56;4.47;;;1.48;;
60873;SDS011;46715;40.642;-7.920;2023-09-19T11:12:59;9.25;;;1.70;;
60873;SDS011;46715;40.642;-7.920;2023-09-19T11:18:00;4.07;;;1.77;;
60873;SDS011;46715;40.642;-7.920;2023-09-19T11:22:15;7.13;;;1.83;;
60873;SDS011;46715;40.642;-7.920;2023-09-19T11:26:41;6.32;;;1.80;;
60873;SDS011;46715;40.642;-7.920;2023-09-19T11:28:48;5.80;;;1.83;;
60873;SDS011;46715;40.642;-7.920;2023-09-19T11:31:49;5.80;;;1.67;;
60873;SDS011;46715;40.642;-7.920;2023-09-19T11:33:59;7.18;;;1.50;;
60873;SDS011;46715;40.642;-7.920;2023-09-19T11:36:36;6.40;;;2.45;;
60873;SDS011;46715;40.642;-7.920;2023-09-19T11:39:19;3.75;;;1.55;;
60873;SDS011;46715;40.642;-7.920;2023-09-19T11:43:39;2.45;;;1.33;;
60873;SDS011;46715;40.642;-7.920;2023-09-19T11:47:46;3.90;;;1.52;;
60873;SDS011;46715;40.642;-7.920;2023-09-19T11:49:48;4.07;;;1.60;;
60873;SDS011;46715;40.642;-7.920;2023-09-19T11:51:51;5.70;;;1.75;;
60873;SDS011;46715;40.642;-7.920;2023-09-19T11:55:56;4.35;;;1.50;;
60873;SDS011;46715;40.642;-7.920;2023-09-19T11:57:57;2.92;;;1.42;;
60873;SDS011;46715;40.642;-7.920;2023-09-19T11:59:58;3.08;;;1.45;;
60873;SDS011;46715;40.642;-7.920;2023-09-19T12:02:12;3.15;;;1.48;;
60873;SDS011;46715;40.642;-7.920;2023-09-19T12:04:35;3.25;;;1.30;;
60873;SDS011;46715;40.642;-7.920;2023-09-19T12:06:41;5.13;;;1.52;;
60873;SDS011;46715;40.642;-7.920;2023-09-19T12:08:44;5.03;;;1.48;;
60873;SDS011;46715;40.642;-7.920;2023-09-19T12:10:47;6.00;;;1.33;;
60873;SDS011;46715;40.642;-7.920;2023-09-19T12:12:49;3.30;;;1.10;;
60873;SDS011;46715;40.642;-7.920;2023-09-19T12:14:50;6.10;;;1.75;;
60873;SDS011;46715;40.642;-7.920;2023-09-19T12:16:54;5.55;;;1.20;;
60873;SDS011;46715;40.642;-7.920;2023-09-19T12:18:56;2.95;;;1.40;;
60873;SDS011;46715;40.642;-7.920;2023-09-19T12:20:58;3.67;;;1.55;;
60873;SDS011;46715;40.642;-7.920;2023-09-19T12:22:59;2.63;;;1.23;;
60873;SDS011;46715;40.642;-7.920;2023-09-19T12:25:13;3.28;;;1.42;;
60873;SDS011;46715;40.642;-7.920;2023-09-19T12:27:17;3.55;;;1.30;;
60873;SDS011;46715;40.642;-7.920;2023-09-19T12:29:19;5.25;;;1.58;;
60873;SDS011;46715;40.642;-7.920;2023-09-19T12:31:22;3.67;;;1.67;;
60873;SDS011;46715;40.642;-7.920;2023-09-19T12:33:25;6.00;;;1.40;;
60873;SDS011;46715;40.642;-7.920;2023-09-19T12:35:32;5.72;;;1.95;;
60873;SDS011;46715;40.642;-7.920;2023-09-19T12:37:45;4.10;;;1.45;;
60873;SDS011;46715;40.642;-7.920;2023-09-19T12:40:04;7.93;;;1.48;;
60873;SDS011;46715;40.642;-7.920;2023-09-19T12:42:23;5.05;;;1.48;;
60873;SDS011;46715;40.642;-7.920;2023-09-19T12:44:29;4.65;;;1.75;;
60873;SDS011;46715;40.642;-7.920;2023-09-19T12:46:30;5.50;;;1.63;;
60873;SDS011;46715;40.642;-7.920;2023-09-19T12:48:32;5.97;;;1.70;;
60873;SDS011;46715;40.642;-7.920;2023-09-19T12:50:34;6.07;;;1.73;;
60873;SDS011;46715;40.642;-7.920;2023-09-19T12:52:56;4.90;;;1.90;;
60873;SDS011;46715;40.642;-7.920;2023-09-19T12:54:59;4.88;;;1.63;;
60873;SDS011;46715;40.642;-7.920;2023-09-19T12:57:06;4.05;;;1.48;;
60873;SDS011;46715;40.642;-7.920;2023-09-19T12:59:07;3.45;;;1.90;;